sensor_id;sensor_type;location;lat;lon;timestamp;pressure;altitude;pressure_sealevel;temperature;humidity
76046;BME280;64741;41.730;44.788;2023-08-21T00:00:44;990.9;;;31.3;31.6
76046;BME280;64741;41.730;44.788;2023-08-21T00:06:00;990.9;;;31.3;31.6
76046;BME280;64741;41.730;44.788;2023-08-21T00:11:06;990.9;;;31.3;31.5
76046;BME280;64741;41.730;44.788;2023-08-21T00:16:02;990.9;;;31.3;31.6
76046;BME280;64741;41.730;44.788;2023-08-21T00:21:01;990.9;;;31.3;31.6
76046;BME280;64741;41.730;44.788;2023-08-21T00:25:58;990.9;;;31.3;31.9
76046;BME280;64741;41.730;44.788;2023-08-21T00:31:04;990.9;;;31.3;32.1
76046;BME280;64741;41.730;44.788;2023-08-21T00:36:02;990.9;;;31.3;32.1
76046;BME280;64741;41.730;44.788;2023-08-21T00:41:00;990.9;;;31.3;32.1
76046;BME280;64741;41.730;44.788;2023-08-21T00:46:00;990.9;;;31.3;31.5
76046;BME280;64741;41.730;44.788;2023-08-21T00:51:00;991;;;31.2;31.9
76046;BME280;64741;41.730;44.788;2023-08-21T00:56:00;991;;;31.2;31.9
76046;BME280;64741;41.730;44.788;2023-08-21T01:01:06;991;;;31.3;32
76046;BME280;64741;41.730;44.788;2023-08-21T01:05:58;991;;;31.3;31.8
76046;BME280;64741;41.730;44.788;2023-08-21T01:11:08;991;;;31.3;31.5
76046;BME280;64741;41.730;44.788;2023-08-21T01:16:00;991;;;31.2;31.4
76046;BME280;64741;41.730;44.788;2023-08-21T01:20:58;991;;;31.1;31.5
76046;BME280;64741;41.730;44.788;2023-08-21T01:26:04;991;;;31.2;31.7
76046;BME280;64741;41.730;44.788;2023-08-21T01:31:02;991;;;31.2;31.8
76046;BME280;64741;41.730;44.788;2023-08-21T01:36:02;991;;;31.2;31.7
76046;BME280;64741;41.730;44.788;2023-08-21T01:40:58;990.9;;;31.2;31.8
76046;BME280;64741;41.730;44.788;2023-08-21T01:45:58;990.9;;;31.2;31.6
76046;BME280;64741;41.730;44.788;2023-08-21T01:51:00;990.9;;;31.1;31.7
76046;BME280;64741;41.730;44.788;2023-08-21T01:55:58;990.9;;;31;31.8
76046;BME280;64741;41.730;44.788;2023-08-21T02:00:38;990.9;;;31;31.8
76046;BME280;64741;41.730;44.788;2023-08-21T02:05:55;990.9;;;31;31.9
76046;BME280;64741;41.730;44.788;2023-08-21T02:11:02;990.9;;;31;31.9
76046;BME280;64741;41.730;44.788;2023-08-21T02:16:00;990.9;;;31;31.9
76046;BME280;64741;41.730;44.788;2023-08-21T02:21:08;990.9;;;31;31.9
76046;BME280;64741;41.730;44.788;2023-08-21T02:26:00;990.9;;;31.1;32
76046;BME280;64741;41.730;44.788;2023-08-21T02:31:00;991;;;31;32
76046;BME280;64741;41.730;44.788;2023-08-21T02:36:00;991;;;31;32
76046;BME280;64741;41.730;44.788;2023-08-21T02:41:06;991.1;;;31;32
76046;BME280;64741;41.730;44.788;2023-08-21T02:46:06;991.1;;;30.9;31.9
76046;BME280;64741;41.730;44.788;2023-08-21T02:50:58;991.1;;;30.9;32.2
76046;BME280;64741;41.730;44.788;2023-08-21T02:56:08;991.1;;;30.9;32.4
76046;BME280;64741;41.730;44.788;2023-08-21T03:01:04;991.1;;;30.9;32.5
76046;BME280;64741;41.730;44.788;2023-08-21T03:06:04;991.1;;;30.9;32.5
76046;BME280;64741;41.730;44.788;2023-08-21T03:11:02;991.1;;;30.9;32.5
76046;BME280;64741;41.730;44.788;2023-08-21T03:16:06;991.1;;;30.7;32.4
76046;BME280;64741;41.730;44.788;2023-08-21T03:20:48;991.1;;;30.6;32.5
76046;BME280;64741;41.730;44.788;2023-08-21T03:25:58;991.1;;;30.6;32.5
76046;BME280;64741;41.730;44.788;2023-08-21T03:30:56;991.1;;;30.4;32.5
76046;BME280;64741;41.730;44.788;2023-08-21T03:36:02;991.2;;;30.3;32.7
76046;BME280;64741;41.730;44.788;2023-08-21T03:41:06;991.2;;;30.3;32.9
76046;BME280;64741;41.730;44.788;2023-08-21T03:45:42;991.2;;;30.3;33
76046;BME280;64741;41.730;44.788;2023-08-21T03:51:00;991.3;;;30.5;33
76046;BME280;64741;41.730;44.788;2023-08-21T03:55:50;991.3;;;30.6;32.9
76046;BME280;64741;41.730;44.788;2023-08-21T04:01:06;991.3;;;30.6;32.8
76046;BME280;64741;41.730;44.788;2023-08-21T04:06:02;991.3;;;30.6;32.7
76046;BME280;64741;41.730;44.788;2023-08-21T04:11:00;991.2;;;30.5;32.7
76046;BME280;64741;41.730;44.788;2023-08-21T04:16:04;991.2;;;30.6;32.6
76046;BME280;64741;41.730;44.788;2023-08-21T04:21:02;991.2;;;30.5;32.7
76046;BME280;64741;41.730;44.788;2023-08-21T04:25:59;991.1;;;30.6;32.9
76046;BME280;64741;41.730;44.788;2023-08-21T04:31:03;991.1;;;30.5;32.5
76046;BME280;64741;41.730;44.788;2023-08-21T04:36:06;991;;;30.3;32.6
76046;BME280;64741;41.730;44.788;2023-08-21T04:41:05;991;;;30.2;33
76046;BME280;64741;41.730;44.788;2023-08-21T04:46:02;991;;;30.3;33.1
76046;BME280;64741;41.730;44.788;2023-08-21T04:51:06;990.9;;;30.3;33.1
76046;BME280;64741;41.730;44.788;2023-08-21T04:56:02;990.9;;;30.4;33
76046;BME280;64741;41.730;44.788;2023-08-21T05:01:04;990.9;;;30.4;32.8
76046;BME280;64741;41.730;44.788;2023-08-21T05:06:00;990.8;;;30.4;32.8
76046;BME280;64741;41.730;44.788;2023-08-21T05:11:00;990.8;;;30.4;32.6
76046;BME280;64741;41.730;44.788;2023-08-21T05:16:01;990.8;;;30.3;32.7
76046;BME280;64741;41.730;44.788;2023-08-21T05:21:00;990.7;;;30.4;32.9
76046;BME280;64741;41.730;44.788;2023-08-21T05:26:06;990.7;;;30.4;32.8
76046;BME280;64741;41.730;44.788;2023-08-21T05:31:00;990.6;;;30.3;33
76046;BME280;64741;41.730;44.788;2023-08-21T05:36:06;990.6;;;30.3;32.7
76046;BME280;64741;41.730;44.788;2023-08-21T05:41:00;990.6;;;30.3;32.9
76046;BME280;64741;41.730;44.788;2023-08-21T05:45:58;990.6;;;30.4;33.3
76046;BME280;64741;41.730;44.788;2023-08-21T05:51:02;990.5;;;30.4;32.8
76046;BME280;64741;41.730;44.788;2023-08-21T05:56:00;990.5;;;30.6;33.1
76046;BME280;64741;41.730;44.788;2023-08-21T06:01:02;990.4;;;30.6;32.4
76046;BME280;64741;41.730;44.788;2023-08-21T06:05:58;990.4;;;30.7;32.7
76046;BME280;64741;41.730;44.788;2023-08-21T06:10:58;990.4;;;30.8;32.3
76046;BME280;64741;41.730;44.788;2023-08-21T06:16:00;990.3;;;30.8;32
76046;BME280;64741;41.730;44.788;2023-08-21T06:21:02;990.2;;;30.9;31.7
76046;BME280;64741;41.730;44.788;2023-08-21T06:26:06;990.1;;;30.9;31.2
76046;BME280;64741;41.730;44.788;2023-08-21T06:31:08;990;;;31;30.5
76046;BME280;64741;41.730;44.788;2023-08-21T06:36:00;990;;;31;30.4
76046;BME280;64741;41.730;44.788;2023-08-21T06:40:58;990;;;31;30.3
76046;BME280;64741;41.730;44.788;2023-08-21T06:46:06;989.9;;;31.1;30.4
76046;BME280;64741;41.730;44.788;2023-08-21T06:51:00;989.9;;;31.1;30.4
76046;BME280;64741;41.730;44.788;2023-08-21T06:55:48;989.9;;;31.2;30.6
76046;BME280;64741;41.730;44.788;2023-08-21T07:00:59;989.9;;;31.3;30.4
76046;BME280;64741;41.730;44.788;2023-08-21T07:06:06;989.8;;;31.3;30.3
76046;BME280;64741;41.730;44.788;2023-08-21T07:11:06;989.8;;;31.3;30.4
76046;BME280;64741;41.730;44.788;2023-08-21T07:15:58;989.7;;;31.4;30.4
76046;BME280;64741;41.730;44.788;2023-08-21T07:21:06;989.6;;;31.4;30.5
76046;BME280;64741;41.730;44.788;2023-08-21T07:25:24;989.6;;;31.4;30.8
76046;BME280;64741;41.730;44.788;2023-08-21T07:31:06;989.5;;;31.5;31.1
76046;BME280;64741;41.730;44.788;2023-08-21T07:36:02;989.4;;;31.5;31.4
76046;BME280;64741;41.730;44.788;2023-08-21T07:41:07;989.4;;;31.5;31.6
76046;BME280;64741;41.730;44.788;2023-08-21T07:46:02;989.4;;;31.5;31.7
76046;BME280;64741;41.730;44.788;2023-08-21T07:51:00;989.3;;;31.6;31.6
76046;BME280;64741;41.730;44.788;2023-08-21T07:56:02;989.2;;;31.6;31.6
76046;BME280;64741;41.730;44.788;2023-08-21T08:00:46;989.2;;;31.6;31.8
76046;BME280;64741;41.730;44.788;2023-08-21T08:06:06;989.1;;;31.7;31.7
76046;BME280;64741;41.730;44.788;2023-08-21T08:11:00;989;;;31.8;31.1
76046;BME280;64741;41.730;44.788;2023-08-21T08:15:46;988.9;;;31.9;30.7
76046;BME280;64741;41.730;44.788;2023-08-21T08:21:06;988.9;;;32;31
76046;BME280;64741;41.730;44.788;2023-08-21T08:25:50;988.9;;;32;31.4
76046;BME280;64741;41.730;44.788;2023-08-21T08:31:00;988.9;;;32;31.6
76046;BME280;64741;41.730;44.788;2023-08-21T08:36:00;988.9;;;32;31.2
76046;BME280;64741;41.730;44.788;2023-08-21T08:41:03;988.8;;;32;30.6
76046;BME280;64741;41.730;44.788;2023-08-21T08:46:00;988.8;;;32;30
76046;BME280;64741;41.730;44.788;2023-08-21T08:50:56;988.8;;;32;30.1
76046;BME280;64741;41.730;44.788;2023-08-21T08:55:56;988.8;;;32.1;30.1
76046;BME280;64741;41.730;44.788;2023-08-21T09:01:04;988.7;;;32.1;30.1
76046;BME280;64741;41.730;44.788;2023-08-21T09:06:02;988.7;;;32.1;29.7
76046;BME280;64741;41.730;44.788;2023-08-21T09:11:00;988.7;;;32.2;30.1
76046;BME280;64741;41.730;44.788;2023-08-21T09:16:04;988.6;;;32.2;30
76046;BME280;64741;41.730;44.788;2023-08-21T09:21:01;988.5;;;32.2;30
76046;BME280;64741;41.730;44.788;2023-08-21T09:26:00;988.5;;;32.2;30
76046;BME280;64741;41.730;44.788;2023-08-21T09:31:00;988.5;;;32.2;29.5
76046;BME280;64741;41.730;44.788;2023-08-21T09:35:58;988.4;;;32.1;29
76046;BME280;64741;41.730;44.788;2023-08-21T09:41:00;988.4;;;32.1;28.7
76046;BME280;64741;41.730;44.788;2023-08-21T09:45:48;988.3;;;32;28.6
76046;BME280;64741;41.730;44.788;2023-08-21T09:51:04;988.2;;;32;28.7
76046;BME280;64741;41.730;44.788;2023-08-21T09:55:58;988.2;;;32.1;28.6
76046;BME280;64741;41.730;44.788;2023-08-21T10:01:04;988.2;;;32.1;28.4
76046;BME280;64741;41.730;44.788;2023-08-21T10:05:48;988.1;;;32;28.3
76046;BME280;64741;41.730;44.788;2023-08-21T10:10:58;988;;;32;28.2
76046;BME280;64741;41.730;44.788;2023-08-21T10:16:00;987.9;;;32;28.8
76046;BME280;64741;41.730;44.788;2023-08-21T10:21:09;987.8;;;32;28.8
76046;BME280;64741;41.730;44.788;2023-08-21T10:26:00;987.8;;;32;29
76046;BME280;64741;41.730;44.788;2023-08-21T10:31:03;987.7;;;32.1;29.2
76046;BME280;64741;41.730;44.788;2023-08-21T10:35:58;987.6;;;32.1;29.1
76046;BME280;64741;41.730;44.788;2023-08-21T10:41:03;987.6;;;32.1;29.1
76046;BME280;64741;41.730;44.788;2023-08-21T10:45:53;987.6;;;32.1;29.1
76046;BME280;64741;41.730;44.788;2023-08-21T10:51:04;987.5;;;32.2;29.1
76046;BME280;64741;41.730;44.788;2023-08-21T10:56:04;987.5;;;32.2;29.2
76046;BME280;64741;41.730;44.788;2023-08-21T11:01:00;987.4;;;32.2;29.2
76046;BME280;64741;41.730;44.788;2023-08-21T11:05:59;987.3;;;32.2;29.1
76046;BME280;64741;41.730;44.788;2023-08-21T11:11:05;987.3;;;32.2;29.1
76046;BME280;64741;41.730;44.788;2023-08-21T11:16:00;987.3;;;32.2;29.2
76046;BME280;64741;41.730;44.788;2023-08-21T11:21:04;987.2;;;32.3;29.4
76046;BME280;64741;41.730;44.788;2023-08-21T11:25:58;987.2;;;32.3;29.5
76046;BME280;64741;41.730;44.788;2023-08-21T11:30:58;987.1;;;32.3;29.4
76046;BME280;64741;41.730;44.788;2023-08-21T11:36:00;987.1;;;32.3;29.3
76046;BME280;64741;41.730;44.788;2023-08-21T11:40:58;987.1;;;32.3;29.4
76046;BME280;64741;41.730;44.788;2023-08-21T11:46:04;987.1;;;32.3;29.6
76046;BME280;64741;41.730;44.788;2023-08-21T11:50:58;987;;;32.3;29.5
76046;BME280;64741;41.730;44.788;2023-08-21T11:56:08;986.9;;;32.4;29.4
76046;BME280;64741;41.730;44.788;2023-08-21T12:01:02;986.9;;;32.4;29.4
76046;BME280;64741;41.730;44.788;2023-08-21T12:06:05;986.9;;;32.4;29.5
76046;BME280;64741;41.730;44.788;2023-08-21T12:11:00;986.9;;;32.4;29.4
76046;BME280;64741;41.730;44.788;2023-08-21T12:15:46;986.8;;;32.4;29.3
76046;BME280;64741;41.730;44.788;2023-08-21T12:21:00;986.8;;;32.4;29.7
76046;BME280;64741;41.730;44.788;2023-08-21T12:25:59;986.8;;;32.4;29.7
76046;BME280;64741;41.730;44.788;2023-08-21T12:31:04;986.6;;;32.3;29.2
76046;BME280;64741;41.730;44.788;2023-08-21T12:35:58;986.6;;;32.2;28.7
76046;BME280;64741;41.730;44.788;2023-08-21T12:40:59;986.7;;;32.2;28.4
76046;BME280;64741;41.730;44.788;2023-08-21T12:45:26;986.6;;;32.2;28.4
76046;BME280;64741;41.730;44.788;2023-08-21T12:51:04;986.6;;;32.2;28.6
76046;BME280;64741;41.730;44.788;2023-08-21T12:56:00;986.6;;;32.2;28.5
76046;BME280;64741;41.730;44.788;2023-08-21T13:00:58;986.6;;;32.3;28.9
76046;BME280;64741;41.730;44.788;2023-08-21T13:06:00;986.6;;;32.3;29.9
76046;BME280;64741;41.730;44.788;2023-08-21T13:11:00;986.5;;;32.3;30.4
76046;BME280;64741;41.730;44.788;2023-08-21T13:15:58;986.5;;;32.3;30.8
76046;BME280;64741;41.730;44.788;2023-08-21T13:20:58;986.5;;;32.3;30.7
76046;BME280;64741;41.730;44.788;2023-08-21T13:26:04;986.4;;;32.3;30.2
76046;BME280;64741;41.730;44.788;2023-08-21T13:31:00;986.4;;;32.2;30.1
76046;BME280;64741;41.730;44.788;2023-08-21T13:35:58;986.4;;;32.2;30.2
76046;BME280;64741;41.730;44.788;2023-08-21T13:41:04;986.4;;;32.2;29.9
76046;BME280;64741;41.730;44.788;2023-08-21T13:46:00;986.4;;;32.2;29.4
76046;BME280;64741;41.730;44.788;2023-08-21T13:50:38;986.4;;;32.2;29.2
76046;BME280;64741;41.730;44.788;2023-08-21T13:55:58;986.4;;;32.2;28.9
76046;BME280;64741;41.730;44.788;2023-08-21T14:01:00;986.4;;;32.2;28.4
76046;BME280;64741;41.730;44.788;2023-08-21T14:05:24;986.4;;;32.2;29
76046;BME280;64741;41.730;44.788;2023-08-21T14:10:58;986.4;;;32.2;28.9
76046;BME280;64741;41.730;44.788;2023-08-21T14:16:04;986.4;;;32.3;28.4
76046;BME280;64741;41.730;44.788;2023-08-21T14:20:58;986.4;;;32.3;28
76046;BME280;64741;41.730;44.788;2023-08-21T14:26:04;986.4;;;32.3;27.9
76046;BME280;64741;41.730;44.788;2023-08-21T14:30:58;986.4;;;32.3;27.9
76046;BME280;64741;41.730;44.788;2023-08-21T14:35:52;986.4;;;32.4;28
76046;BME280;64741;41.730;44.788;2023-08-21T14:41:00;986.3;;;32.4;27.8
76046;BME280;64741;41.730;44.788;2023-08-21T14:45:52;986.4;;;32.4;27.8
76046;BME280;64741;41.730;44.788;2023-08-21T14:51:00;986.4;;;32.4;27.8
76046;BME280;64741;41.730;44.788;2023-08-21T14:55:58;986.5;;;32.4;27.8
76046;BME280;64741;41.730;44.788;2023-08-21T15:00:58;986.4;;;32.4;27.8
76046;BME280;64741;41.730;44.788;2023-08-21T15:05:58;986.5;;;32.4;28.1
76046;BME280;64741;41.730;44.788;2023-08-21T15:10:58;986.6;;;32.4;29
76046;BME280;64741;41.730;44.788;2023-08-21T15:16:04;986.7;;;32.4;29
76046;BME280;64741;41.730;44.788;2023-08-21T15:21:02;986.8;;;32.4;28.9
76046;BME280;64741;41.730;44.788;2023-08-21T15:26:00;986.9;;;32.4;28.9
76046;BME280;64741;41.730;44.788;2023-08-21T15:30:58;987;;;32.4;29
76046;BME280;64741;41.730;44.788;2023-08-21T15:36:04;987.2;;;32.4;29.1
76046;BME280;64741;41.730;44.788;2023-08-21T15:41:00;987.2;;;32.4;28.7
76046;BME280;64741;41.730;44.788;2023-08-21T15:46:02;987.2;;;32.4;28
76046;BME280;64741;41.730;44.788;2023-08-21T15:50:58;987.3;;;32.4;28.2
76046;BME280;64741;41.730;44.788;2023-08-21T15:55:58;987.3;;;32.4;28.3
76046;BME280;64741;41.730;44.788;2023-08-21T16:01:02;987.2;;;32.4;28
76046;BME280;64741;41.730;44.788;2023-08-21T16:05:56;987.3;;;32.4;28
76046;BME280;64741;41.730;44.788;2023-08-21T16:11:04;987.4;;;32.4;27.8
76046;BME280;64741;41.730;44.788;2023-08-21T16:15:58;987.4;;;32.4;28.1
76046;BME280;64741;41.730;44.788;2023-08-21T16:21:04;987.4;;;32.4;27.7
76046;BME280;64741;41.730;44.788;2023-08-21T16:26:01;987.5;;;32.4;27.4
76046;BME280;64741;41.730;44.788;2023-08-21T16:31:06;987.5;;;32.4;27.8
76046;BME280;64741;41.730;44.788;2023-08-21T16:36:00;987.4;;;32.4;28
76046;BME280;64741;41.730;44.788;2023-08-21T16:40:48;987.3;;;32.4;28.3
76046;BME280;64741;41.730;44.788;2023-08-21T16:45:48;987.2;;;32.4;28.1
76046;BME280;64741;41.730;44.788;2023-08-21T16:50:58;987.3;;;32.4;27.5
76046;BME280;64741;41.730;44.788;2023-08-21T16:56:06;987.4;;;32.4;27.1
76046;BME280;64741;41.730;44.788;2023-08-21T17:00:58;987.4;;;32.4;27.2
76046;BME280;64741;41.730;44.788;2023-08-21T17:05:58;987.5;;;32.4;27.4
76046;BME280;64741;41.730;44.788;2023-08-21T17:10:50;987.5;;;32.4;28.1
76046;BME280;64741;41.730;44.788;2023-08-21T17:15:50;987.4;;;32.4;27.9
76046;BME280;64741;41.730;44.788;2023-08-21T17:21:02;987.6;;;32.4;27.9
76046;BME280;64741;41.730;44.788;2023-08-21T17:26:00;987.6;;;32.4;28
76046;BME280;64741;41.730;44.788;2023-08-21T17:31:00;987.6;;;32.4;27.7
76046;BME280;64741;41.730;44.788;2023-08-21T17:36:00;987.5;;;32.4;27.7
76046;BME280;64741;41.730;44.788;2023-08-21T17:40:58;987.6;;;32.4;27.8
76046;BME280;64741;41.730;44.788;2023-08-21T17:45:56;987.8;;;32.3;27.4
76046;BME280;64741;41.730;44.788;2023-08-21T17:51:05;987.9;;;32.3;27.9
76046;BME280;64741;41.730;44.788;2023-08-21T17:55:58;987.9;;;32.4;28.1
76046;BME280;64741;41.730;44.788;2023-08-21T18:00:58;987.9;;;32.3;27.7
76046;BME280;64741;41.730;44.788;2023-08-21T18:06:04;987.9;;;32.3;28.2
76046;BME280;64741;41.730;44.788;2023-08-21T18:11:00;987.9;;;32.3;28.7
76046;BME280;64741;41.730;44.788;2023-08-21T18:15:47;987.9;;;32.3;28.8
76046;BME280;64741;41.730;44.788;2023-08-21T18:20:58;987.8;;;32.3;28.7
76046;BME280;64741;41.730;44.788;2023-08-21T18:25:58;987.8;;;32.3;28.1
76046;BME280;64741;41.730;44.788;2023-08-21T18:30:59;988;;;32.3;28.4
76046;BME280;64741;41.730;44.788;2023-08-21T18:35:59;988.1;;;32.3;28.7
76046;BME280;64741;41.730;44.788;2023-08-21T18:41:07;988.2;;;32.3;28.8
76046;BME280;64741;41.730;44.788;2023-08-21T18:45:58;988.3;;;32.3;28.2
76046;BME280;64741;41.730;44.788;2023-08-21T18:51:04;988.4;;;32.2;28
76046;BME280;64741;41.730;44.788;2023-08-21T18:55:59;988.4;;;32.2;28.2
76046;BME280;64741;41.730;44.788;2023-08-21T19:00:58;988.4;;;32.2;28.4
76046;BME280;64741;41.730;44.788;2023-08-21T19:06:00;988.5;;;32.2;28.5
76046;BME280;64741;41.730;44.788;2023-08-21T19:10:59;988.6;;;32.2;28.6
76046;BME280;64741;41.730;44.788;2023-08-21T19:16:01;988.7;;;32.2;28.3
76046;BME280;64741;41.730;44.788;2023-08-21T19:20:58;988.7;;;32.2;28.4
76046;BME280;64741;41.730;44.788;2023-08-21T19:25:58;988.6;;;32.2;28.4
76046;BME280;64741;41.730;44.788;2023-08-21T19:30:58;988.6;;;32.2;28.3
76046;BME280;64741;41.730;44.788;2023-08-21T19:36:00;988.6;;;32.2;28.5
76046;BME280;64741;41.730;44.788;2023-08-21T19:41:08;988.6;;;32.2;28.4
76046;BME280;64741;41.730;44.788;2023-08-21T19:46:06;988.6;;;32.1;28.3
76046;BME280;64741;41.730;44.788;2023-08-21T19:51:06;988.6;;;32.1;28.2
76046;BME280;64741;41.730;44.788;2023-08-21T19:55:58;988.7;;;32.1;28.2
76046;BME280;64741;41.730;44.788;2023-08-21T20:01:04;988.7;;;32.1;28.3
76046;BME280;64741;41.730;44.788;2023-08-21T20:06:00;988.7;;;32;27.9
76046;BME280;64741;41.730;44.788;2023-08-21T20:11:04;988.8;;;32;28.1
76046;BME280;64741;41.730;44.788;2023-08-21T20:16:00;988.9;;;32;28.2
76046;BME280;64741;41.730;44.788;2023-08-21T20:20:58;989;;;32;28.3
76046;BME280;64741;41.730;44.788;2023-08-21T20:26:00;989.1;;;32;28.4
76046;BME280;64741;41.730;44.788;2023-08-21T20:31:00;989.3;;;32;28.5
76046;BME280;64741;41.730;44.788;2023-08-21T20:35:52;989.6;;;32;28.2
76046;BME280;64741;41.730;44.788;2023-08-21T20:41:01;989.7;;;31.9;28.3
76046;BME280;64741;41.730;44.788;2023-08-21T20:46:06;989.9;;;31.9;28.1
76046;BME280;64741;41.730;44.788;2023-08-21T20:50:46;990;;;31.9;28.3
76046;BME280;64741;41.730;44.788;2023-08-21T20:56:04;990;;;31.9;28.5
76046;BME280;64741;41.730;44.788;2023-08-21T21:01:00;990.1;;;31.9;28.5
76046;BME280;64741;41.730;44.788;2023-08-21T21:06:00;990.1;;;31.9;28.6
76046;BME280;64741;41.730;44.788;2023-08-21T21:11:02;990.1;;;31.9;29.2
76046;BME280;64741;41.730;44.788;2023-08-21T21:16:00;990;;;31.8;30.5
76046;BME280;64741;41.730;44.788;2023-08-21T21:21:04;989.9;;;31.7;31.3
76046;BME280;64741;41.730;44.788;2023-08-21T21:25:58;989.7;;;31.6;31.8
76046;BME280;64741;41.730;44.788;2023-08-21T21:30:58;989.5;;;31.5;31.9
76046;BME280;64741;41.730;44.788;2023-08-21T21:36:06;989.3;;;31.4;32.5
76046;BME280;64741;41.730;44.788;2023-08-21T21:41:06;989;;;31.5;32.4
76046;BME280;64741;41.730;44.788;2023-08-21T21:46:03;988.6;;;31.5;32.3
76046;BME280;64741;41.730;44.788;2023-08-21T21:50:58;988.5;;;31.6;32.3
76046;BME280;64741;41.730;44.788;2023-08-21T21:56:00;988.5;;;31.6;32.1
76046;BME280;64741;41.730;44.788;2023-08-21T22:01:02;988.5;;;31.6;32.2
76046;BME280;64741;41.730;44.788;2023-08-21T22:05:58;988.4;;;31.6;32.4
76046;BME280;64741;41.730;44.788;2023-08-21T22:11:02;988.5;;;31.6;32.4
76046;BME280;64741;41.730;44.788;2023-08-21T22:16:06;988.5;;;31.6;32.4
76046;BME280;64741;41.730;44.788;2023-08-21T22:21:00;988.5;;;31.5;32.7
76046;BME280;64741;41.730;44.788;2023-08-21T22:25:32;988.7;;;31.4;33.3
76046;BME280;64741;41.730;44.788;2023-08-21T22:31:06;988.8;;;31.3;33.5
76046;BME280;64741;41.730;44.788;2023-08-21T22:36:00;988.8;;;31.2;33.6
76046;BME280;64741;41.730;44.788;2023-08-21T22:41:02;988.9;;;31.1;33.6
76046;BME280;64741;41.730;44.788;2023-08-21T22:45:58;988.9;;;31.1;33.8
76046;BME280;64741;41.730;44.788;2023-08-21T22:51:02;989;;;31.1;34
76046;BME280;64741;41.730;44.788;2023-08-21T22:55:58;989;;;31.1;33.8
76046;BME280;64741;41.730;44.788;2023-08-21T23:01:00;989;;;31.2;33.7
76046;BME280;64741;41.730;44.788;2023-08-21T23:06:06;989;;;31.2;33.7
76046;BME280;64741;41.730;44.788;2023-08-21T23:10:58;989.1;;;31.2;33.7
76046;BME280;64741;41.730;44.788;2023-08-21T23:16:06;989.2;;;31.2;33.5
76046;BME280;64741;41.730;44.788;2023-08-21T23:20:59;989.2;;;31.1;33.5
76046;BME280;64741;41.730;44.788;2023-08-21T23:25:34;989.2;;;31.1;33.6
76046;BME280;64741;41.730;44.788;2023-08-21T23:31:02;989.3;;;31.2;33.4
76046;BME280;64741;41.730;44.788;2023-08-21T23:36:00;989.3;;;31.3;33.2
76046;BME280;64741;41.730;44.788;2023-08-21T23:41:00;989.4;;;31.3;33.1
76046;BME280;64741;41.730;44.788;2023-08-21T23:45:58;989.4;;;31.2;33
76046;BME280;64741;41.730;44.788;2023-08-21T23:50:58;989.5;;;31.1;33.1
76046;BME280;64741;41.730;44.788;2023-08-21T23:56:02;989.6;;;31.1;33.1
